Time;durP1;ratioP1;P1;durP2;ratioP2;P2;SDS_P1;SDS_P2;PMS_P1;PMS_P2;Temp;Humidity;BMP_temperature;BMP_pressure;BME280_temperature;BME280_humidity;BME280_pressure;Samples;Min_cycle;Max_cycle;Signal;HPM_P1;HPM_P2
2023/12/11 00:00:06;;;;;;;7.85;5.07;;;15.70;71.20;;;;;;345626;28;1179;-57
2023/12/11 00:00:17;;;;;;;8.00;5.32;;;15.80;71.20;;;;;;345593;28;1004;-58
2023/12/11 00:00:28;;;;;;;7.95;5.40;;;15.70;71.20;;;;;;345621;28;989;-57
2023/12/11 00:00:39;;;;;;;7.30;4.95;;;15.80;71.20;;;;;;345662;28;976;-57
2023/12/11 00:00:49;;;;;;;6.90;4.80;;;15.80;71.20;;;;;;345626;28;878;-57
2023/12/11 00:01:00;;;;;;;6.40;4.65;;;15.70;71.20;;;;;;345549;28;1625;-57
2023/12/11 00:01:11;;;;;;;7.10;5.00;;;15.70;71.20;;;;;;345626;28;1062;-58
2023/12/11 00:01:22;;;;;;;6.95;4.90;;;15.70;71.10;;;;;;345595;28;1017;-57
2023/12/11 00:01:34;;;;;;;6.95;5.05;;;15.70;71.10;;;;;;345435;28;1181;-58
2023/12/11 00:01:45;;;;;;;5.68;4.72;;;15.70;71.00;;;;;;345542;28;964;-59
2023/12/11 00:01:55;;;;;;;6.43;5.00;;;15.80;70.90;;;;;;345604;28;1351;-58
2023/12/11 00:02:06;;;;;;;6.03;5.03;;;15.80;70.90;;;;;;345608;28;1974;-58
2023/12/11 00:02:17;;;;;;;6.67;5.10;;;15.80;70.90;;;;;;345587;28;1063;-58
2023/12/11 00:02:28;;;;;;;6.57;4.72;;;15.80;70.90;;;;;;345592;28;1166;-57
2023/12/11 00:02:38;;;;;;;6.50;4.55;;;15.70;70.90;;;;;;345637;28;1079;-57
2023/12/11 00:02:49;;;;;;;6.95;4.60;;;15.70;70.90;;;;;;345592;28;976;-57
2023/12/11 00:03:00;;;;;;;6.60;4.80;;;15.70;70.80;;;;;;345567;28;1446;-57
2023/12/11 00:03:11;;;;;;;6.35;4.53;;;15.70;70.80;;;;;;345519;28;1035;-56
2023/12/11 00:03:21;;;;;;;5.55;4.50;;;15.70;70.70;;;;;;345523;28;866;-56
2023/12/11 00:03:32;;;;;;;5.40;4.53;;;15.70;70.70;;;;;;345664;28;814;-57
2023/12/11 00:03:43;;;;;;;6.40;4.70;;;15.80;70.70;;;;;;345592;28;1779;-56
2023/12/11 00:03:54;;;;;;;6.30;4.50;;;15.80;70.70;;;;;;345550;28;1126;-55
2023/12/11 00:04:04;;;;;;;6.45;4.53;;;15.70;70.80;;;;;;345595;28;1031;-58
2023/12/11 00:04:15;;;;;;;5.68;4.80;;;15.70;70.80;;;;;;345623;28;1080;-57
2023/12/11 00:04:26;;;;;;;7.32;5.07;;;15.80;70.80;;;;;;345587;28;1103;-58
2023/12/11 00:04:37;;;;;;;7.03;4.82;;;15.80;70.70;;;;;;345457;28;1433;-58
2023/12/11 00:04:48;;;;;;;6.90;4.47;;;15.80;70.70;;;;;;345660;28;884;-58
2023/12/11 00:04:58;;;;;;;5.28;4.07;;;15.80;70.60;;;;;;345652;28;901;-57
2023/12/11 00:05:09;;;;;;;5.70;4.38;;;15.80;70.50;;;;;;345627;28;893;-57
2023/12/11 00:05:20;;;;;;;5.85;4.45;;;15.80;70.50;;;;;;345574;28;912;-57
2023/12/11 00:05:30;;;;;;;6.25;4.70;;;15.80;70.40;;;;;;345484;28;1575;-57
2023/12/11 00:05:41;;;;;;;6.13;4.70;;;15.80;70.30;;;;;;345615;28;1032;-58
2023/12/11 00:05:52;;;;;;;6.63;4.80;;;15.80;70.30;;;;;;345624;28;1100;-58
2023/12/11 00:06:03;;;;;;;7.00;4.70;;;15.80;70.30;;;;;;345520;28;985;-57
2023/12/11 00:06:14;;;;;;;7.00;4.45;;;15.80;70.40;;;;;;345637;28;969;-58
2023/12/11 00:06:25;;;;;;;7.00;4.60;;;15.70;70.40;;;;;;345662;28;885;-58
2023/12/11 00:06:35;;;;;;;8.57;4.78;;;15.70;70.40;;;;;;345548;28;1254;-58
2023/12/11 00:06:46;;;;;;;9.17;4.83;;;15.70;70.50;;;;;;345525;28;1078;-57
2023/12/11 00:06:57;;;;;;;9.48;4.45;;;15.70;70.60;;;;;;345668;28;825;-57
2023/12/11 00:07:08;;;;;;;7.43;4.32;;;15.70;70.50;;;;;;345592;28;973;-57
2023/12/11 00:07:18;;;;;;;7.43;4.47;;;15.70;70.40;;;;;;345606;28;1000;-57
2023/12/11 00:07:29;;;;;;;7.43;4.60;;;15.70;70.40;;;;;;345541;28;1245;-57
2023/12/11 00:07:40;;;;;;;7.00;4.50;;;15.80;70.40;;;;;;345590;28;1059;-57
2023/12/11 00:07:51;;;;;;;7.25;4.60;;;15.70;70.40;;;;;;345626;28;1025;-58
2023/12/11 00:08:02;;;;;;;7.38;4.65;;;15.70;70.30;;;;;;345676;28;845;-59
2023/12/11 00:08:12;;;;;;;6.55;4.43;;;15.80;70.30;;;;;;345597;28;1006;-58
2023/12/11 00:08:23;;;;;;;5.70;4.10;;;15.80;70.20;;;;;;345645;28;813;-58
2023/12/11 00:08:34;;;;;;;6.45;4.15;;;15.80;70.10;;;;;;345645;28;849;-58
2023/12/11 00:08:45;;;;;;;6.13;4.20;;;15.80;70.10;;;;;;345689;28;912;-57
2023/12/11 00:08:56;;;;;;;6.07;4.30;;;15.80;70.10;;;;;;345485;28;1083;-57
2023/12/11 00:09:07;;;;;;;6.28;4.40;;;15.80;70.20;;;;;;345617;28;1007;-58
2023/12/11 00:09:17;;;;;;;6.78;4.60;;;15.80;70.20;;;;;;345648;28;988;-58
2023/12/11 00:09:28;;;;;;;7.80;4.80;;;15.80;70.20;;;;;;345590;28;892;-58
2023/12/11 00:09:39;;;;;;;8.02;4.70;;;15.80;70.10;;;;;;345482;28;1000;-57
2023/12/11 00:09:49;;;;;;;8.33;4.70;;;15.80;70.10;;;;;;345680;28;956;-57
2023/12/11 00:10:01;;;;;;;7.15;4.53;;;15.80;70.10;;;;;;345546;28;825;-57
2023/12/11 00:10:11;;;;;;;7.30;4.50;;;15.80;70.10;;;;;;345642;28;1191;-58
2023/12/11 00:10:22;;;;;;;7.32;4.57;;;15.80;70.00;;;;;;345533;28;1410;-58
2023/12/11 00:10:33;;;;;;;7.72;4.80;;;15.80;70.00;;;;;;345567;28;1393;-58
2023/12/11 00:10:44;;;;;;;6.80;4.70;;;15.80;70.00;;;;;;345583;28;1539;-58
2023/12/11 00:10:55;;;;;;;7.50;4.80;;;15.80;70.10;;;;;;345641;28;2409;-57
2023/12/11 00:11:08;;;;;;;7.43;4.60;;;15.80;70.00;;;;;;345489;28;1041;-57
2023/12/11 00:11:19;;;;;;;7.35;4.88;;;15.80;70.10;;;;;;345441;28;1214;-57
2023/12/11 00:11:30;;;;;;;6.22;4.75;;;15.80;70.00;;;;;;345413;28;1070;-57
2023/12/11 00:11:41;;;;;;;6.85;4.60;;;15.80;70.10;;;;;;345407;28;918;-59
2023/12/11 00:11:51;;;;;;;6.75;4.20;;;15.80;70.00;;;;;;345380;28;961;-58
2023/12/11 00:12:02;;;;;;;7.20;4.25;;;15.80;70.10;;;;;;345640;28;1569;-58
2023/12/11 00:12:13;;;;;;;6.95;4.30;;;15.80;70.10;;;;;;345645;28;885;-58
2023/12/11 00:12:24;;;;;;;6.53;4.40;;;15.80;70.10;;;;;;345674;28;878;-57
2023/12/11 00:12:36;;;;;;;5.65;4.55;;;15.80;70.10;;;;;;345480;28;1123;-56
2023/12/11 00:12:46;;;;;;;5.50;4.50;;;15.80;70.20;;;;;;345652;28;932;-58
2023/12/11 00:12:57;;;;;;;5.45;4.45;;;15.80;70.30;;;;;;345557;28;1147;-57
2023/12/11 00:13:08;;;;;;;5.25;4.55;;;15.80;70.30;;;;;;345621;28;1069;-57
2023/12/11 00:13:19;;;;;;;5.93;4.67;;;15.80;70.20;;;;;;345516;28;1031;-57
2023/12/11 00:13:30;;;;;;;6.43;4.60;;;15.80;70.20;;;;;;345594;28;2005;-57
2023/12/11 00:13:41;;;;;;;6.63;4.67;;;15.80;70.20;;;;;;345625;28;1853;-57
2023/12/11 00:13:51;;;;;;;7.40;5.03;;;15.80;70.10;;;;;;345546;28;1213;-57
2023/12/11 00:14:02;;;;;;;7.00;5.10;;;15.80;70.10;;;;;;345663;28;943;-57
2023/12/11 00:14:13;;;;;;;6.40;5.00;;;15.80;70.00;;;;;;345617;28;1043;-58
2023/12/11 00:14:24;;;;;;;7.10;4.80;;;15.80;70.00;;;;;;345523;28;1037;-57
2023/12/11 00:14:34;;;;;;;7.10;4.70;;;15.80;70.00;;;;;;345574;28;1756;-57
2023/12/11 00:14:45;;;;;;;7.00;4.50;;;15.80;70.00;;;;;;345662;28;1241;-57
2023/12/11 00:14:57;;;;;;;6.43;4.70;;;15.80;70.00;;;;;;345612;28;920;-57
2023/12/11 00:15:10;;;;;;;6.43;4.78;;;15.80;70.00;;;;;;345668;28;1063;-58
2023/12/11 00:15:21;;;;;;;6.55;4.60;;;15.80;70.00;;;;;;345532;28;1242;-58
2023/12/11 00:15:32;;;;;;;7.13;4.50;;;15.80;70.00;;;;;;345611;28;1040;-58
2023/12/11 00:15:43;;;;;;;6.45;4.47;;;15.70;70.00;;;;;;345627;28;988;-58
2023/12/11 00:15:54;;;;;;;6.43;4.50;;;15.80;70.00;;;;;;345465;28;1027;-57
2023/12/11 00:16:05;;;;;;;5.70;4.50;;;15.80;70.00;;;;;;345580;28;1001;-57
2023/12/11 00:16:19;;;;;;;6.18;4.40;;;15.80;70.00;;;;;;345607;28;2025;-57
2023/12/11 00:16:29;;;;;;;5.75;4.72;;;15.80;70.00;;;;;;345536;28;1491;-57
2023/12/11 00:16:40;;;;;;;6.05;4.82;;;15.80;70.00;;;;;;345606;28;899;-58
2023/12/11 00:16:51;;;;;;;6.67;4.93;;;15.70;70.10;;;;;;345644;28;862;-57
2023/12/11 00:17:02;;;;;;;7.38;4.68;;;15.70;70.10;;;;;;345533;28;996;-57
2023/12/11 00:17:13;;;;;;;7.53;4.80;;;15.80;70.10;;;;;;345565;28;874;-57
2023/12/11 00:17:23;;;;;;;7.00;4.70;;;15.80;70.20;;;;;;345649;28;1007;-56
2023/12/11 00:17:34;;;;;;;6.50;4.65;;;15.80;70.10;;;;;;345539;28;985;-56
2023/12/11 00:17:45;;;;;;;6.15;4.38;;;15.80;70.20;;;;;;345588;28;1777;-58
2023/12/11 00:17:56;;;;;;;7.07;4.60;;;15.80;70.20;;;;;;345595;28;960;-57
2023/12/11 00:18:06;;;;;;;7.65;4.50;;;15.80;70.30;;;;;;345611;28;833;-57
2023/12/11 00:18:17;;;;;;;7.25;4.40;;;15.80;70.20;;;;;;345496;28;916;-58
2023/12/11 00:18:28;;;;;;;6.38;4.00;;;15.80;70.20;;;;;;345631;28;892;-59
2023/12/11 00:18:39;;;;;;;5.63;3.80;;;15.80;70.10;;;;;;345560;28;1032;-58
2023/12/11 00:18:49;;;;;;;6.53;3.70;;;15.70;70.10;;;;;;345656;28;1050;-57
2023/12/11 00:19:00;;;;;;;6.18;3.70;;;15.70;70.00;;;;;;345579;28;924;-57
2023/12/11 00:19:11;;;;;;;6.28;3.90;;;15.70;69.90;;;;;;345532;28;1171;-57
2023/12/11 00:19:22;;;;;;;6.38;4.03;;;15.80;69.90;;;;;;345576;28;1064;-57
2023/12/11 00:19:33;;;;;;;6.00;4.17;;;15.80;69.80;;;;;;345539;28;1028;-58
2023/12/11 00:19:43;;;;;;;6.15;4.22;;;15.80;69.70;;;;;;345494;28;1285;-58
2023/12/11 00:19:54;;;;;;;5.70;4.30;;;15.80;69.60;;;;;;345572;28;1027;-57
2023/12/11 00:20:06;;;;;;;6.13;4.25;;;15.80;69.50;;;;;;345567;28;1032;-57
2023/12/11 00:20:17;;;;;;;6.03;4.18;;;15.80;69.50;;;;;;345621;28;847;-57
2023/12/11 00:20:27;;;;;;;6.00;4.25;;;15.80;69.50;;;;;;345534;28;1050;-58
2023/12/11 00:20:38;;;;;;;6.20;4.20;;;15.80;69.50;;;;;;345625;28;806;-57
2023/12/11 00:20:49;;;;;;;6.93;4.13;;;15.70;69.50;;;;;;345522;28;1052;-58
2023/12/11 00:21:00;;;;;;;6.70;4.03;;;15.70;69.60;;;;;;345571;28;980;-57
2023/12/11 00:21:11;;;;;;;6.57;4.10;;;15.80;69.60;;;;;;345497;28;1495;-57
2023/12/11 00:21:22;;;;;;;5.17;3.97;;;15.70;69.60;;;;;;345570;28;1024;-57
2023/12/11 00:21:33;;;;;;;5.53;4.10;;;15.80;69.60;;;;;;345592;28;1075;-57
2023/12/11 00:21:44;;;;;;;6.65;4.43;;;15.70;69.60;;;;;;345614;28;1040;-57
2023/12/11 00:21:55;;;;;;;7.15;4.70;;;15.80;69.70;;;;;;345486;28;1048;-58
2023/12/11 00:22:06;;;;;;;7.65;4.63;;;15.80;69.70;;;;;;345533;28;1914;-55
2023/12/11 00:22:17;;;;;;;6.87;4.13;;;15.70;69.60;;;;;;345600;28;778;-56
2023/12/11 00:22:27;;;;;;;7.57;4.00;;;15.80;69.60;;;;;;345537;28;1008;-57
2023/12/11 00:22:38;;;;;;;7.45;4.00;;;15.70;69.50;;;;;;345530;28;1904;-58
2023/12/11 00:22:49;;;;;;;7.25;4.00;;;15.80;69.40;;;;;;345581;28;1138;-57
2023/12/11 00:23:00;;;;;;;6.03;3.80;;;15.80;69.30;;;;;;345608;28;1540;-57
2023/12/11 00:23:10;;;;;;;5.70;3.90;;;15.80;69.20;;;;;;345556;28;1108;-57
2023/12/11 00:23:21;;;;;;;5.30;3.88;;;15.80;69.10;;;;;;345593;28;1092;-57
2023/12/11 00:23:32;;;;;;;6.30;3.92;;;15.80;69.10;;;;;;345502;28;1044;-57
2023/12/11 00:23:43;;;;;;;5.40;3.63;;;15.70;69.10;;;;;;345573;28;1021;-58
2023/12/11 00:23:53;;;;;;;6.00;3.70;;;15.80;69.20;;;;;;345663;28;865;-56
2023/12/11 00:24:06;;;;;;;5.50;3.50;;;15.80;69.20;;;;;;345616;28;1035;-57
2023/12/11 00:24:17;;;;;;;6.40;3.58;;;15.80;69.20;;;;;;345552;28;2026;-56
2023/12/11 00:24:27;;;;;;;5.93;3.60;;;15.70;69.20;;;;;;345654;28;1080;-55
2023/12/11 00:24:38;;;;;;;5.60;3.63;;;15.70;69.10;;;;;;345584;28;830;-58
2023/12/11 00:24:49;;;;;;;4.60;3.60;;;15.80;69.00;;;;;;345605;28;838;-58
2023/12/11 00:24:59;;;;;;;5.05;3.63;;;15.80;69.00;;;;;;345486;28;989;-57
2023/12/11 00:25:10;;;;;;;4.78;3.47;;;15.80;69.00;;;;;;345474;28;1117;-56
2023/12/11 00:25:21;;;;;;;4.77;3.40;;;15.80;69.00;;;;;;345613;28;1051;-57
2023/12/11 00:25:32;;;;;;;5.03;3.47;;;15.80;69.00;;;;;;345642;28;814;-57
2023/12/11 00:25:46;;;;;;;4.82;3.22;;;15.80;69.00;;;;;;345521;28;1119;-56
2023/12/11 00:25:57;;;;;;;4.72;3.10;;;15.80;68.90;;;;;;345530;28;1046;-58
2023/12/11 00:26:08;;;;;;;4.85;3.13;;;15.80;68.80;;;;;;345557;28;949;-56
2023/12/11 00:26:19;;;;;;;5.07;3.22;;;15.80;68.80;;;;;;345628;28;1083;-57
2023/12/11 00:26:30;;;;;;;5.63;3.40;;;15.80;68.80;;;;;;345560;28;1020;-57
2023/12/11 00:26:41;;;;;;;5.40;3.50;;;15.70;68.80;;;;;;345435;28;980;-57
2023/12/11 00:26:51;;;;;;;4.82;3.45;;;15.80;68.80;;;;;;345635;28;984;-57
2023/12/11 00:27:02;;;;;;;4.20;3.50;;;15.80;68.90;;;;;;345574;28;830;-57
2023/12/11 00:27:13;;;;;;;4.90;3.35;;;15.80;68.80;;;;;;345578;28;1095;-56
2023/12/11 00:27:24;;;;;;;5.35;3.20;;;15.80;68.90;;;;;;345624;28;991;-58
2023/12/11 00:27:34;;;;;;;5.43;3.20;;;15.80;68.80;;;;;;345489;28;1048;-56
2023/12/11 00:27:45;;;;;;;5.60;3.50;;;15.80;68.80;;;;;;348142;28;1017;-56
2023/12/11 00:27:56;;;;;;;5.53;3.50;;;15.70;68.70;;;;;;348238;28;833;-58
2023/12/11 00:28:07;;;;;;;4.70;3.33;;;15.80;68.80;;;;;;348263;28;1023;-57
2023/12/11 00:28:18;;;;;;;5.27;3.30;;;15.80;68.80;;;;;;348193;28;1413;-57
2023/12/11 00:28:28;;;;;;;5.15;3.50;;;15.80;68.80;;;;;;348102;28;1131;-57
2023/12/11 00:28:39;;;;;;;5.70;3.53;;;15.80;68.90;;;;;;348190;28;1042;-57
2023/12/11 00:28:50;;;;;;;6.00;3.97;;;15.80;68.90;;;;;;348184;28;1778;-58
2023/12/11 00:29:01;;;;;;;6.30;3.78;;;15.80;68.80;;;;;;348207;28;1095;-56
2023/12/11 00:29:12;;;;;;;5.78;3.53;;;15.80;68.70;;;;;;348154;28;1058;-58
2023/12/11 00:29:22;;;;;;;4.80;3.05;;;15.80;68.60;;;;;;348251;28;944;-57
2023/12/11 00:29:33;;;;;;;4.67;3.13;;;15.70;68.50;;;;;;348203;28;1594;-57
2023/12/11 00:29:44;;;;;;;5.13;3.50;;;15.70;68.60;;;;;;346271;28;1043;-57
2023/12/11 00:29:55;;;;;;;5.20;3.72;;;15.70;68.70;;;;;;345448;28;1323;-57
2023/12/11 00:30:07;;;;;;;5.70;3.97;;;15.80;68.90;;;;;;345589;28;932;-58
2023/12/11 00:30:17;;;;;;;5.20;3.70;;;15.70;69.00;;;;;;345650;28;841;-57
2023/12/11 00:30:28;;;;;;;6.65;3.78;;;15.80;69.20;;;;;;345642;28;826;-57
2023/12/11 00:30:39;;;;;;;6.37;3.67;;;15.70;69.20;;;;;;345519;28;1007;-58
2023/12/11 00:30:50;;;;;;;6.03;3.63;;;15.70;69.20;;;;;;345572;28;1926;-57
2023/12/11 00:31:01;;;;;;;4.82;3.67;;;15.70;69.20;;;;;;345649;28;830;-57
2023/12/11 00:31:12;;;;;;;4.45;3.58;;;15.70;69.20;;;;;;345573;28;1090;-58
2023/12/11 00:31:22;;;;;;;4.35;3.13;;;15.80;69.10;;;;;;345589;28;928;-58
2023/12/11 00:31:33;;;;;;;4.53;3.00;;;15.80;69.10;;;;;;345539;28;1146;-58
2023/12/11 00:31:44;;;;;;;4.35;3.00;;;15.80;69.10;;;;;;345603;28;801;-59
2023/12/11 00:31:55;;;;;;;4.93;3.25;;;15.70;69.10;;;;;;345585;28;1004;-59
2023/12/11 00:32:06;;;;;;;4.50;3.20;;;15.80;69.10;;;;;;345513;28;904;-57
2023/12/11 00:32:17;;;;;;;5.05;3.30;;;15.80;69.10;;;;;;345544;28;1044;-57
2023/12/11 00:32:28;;;;;;;4.55;3.20;;;15.70;69.10;;;;;;345593;28;947;-56
2023/12/11 00:32:38;;;;;;;4.90;3.27;;;15.80;69.10;;;;;;345557;28;853;-57
2023/12/11 00:32:50;;;;;;;4.55;3.22;;;15.80;69.10;;;;;;345458;28;1032;-58
2023/12/11 00:33:00;;;;;;;4.95;3.30;;;15.70;69.10;;;;;;345602;28;950;-57
2023/12/11 00:33:11;;;;;;;5.07;3.45;;;15.70;69.10;;;;;;345656;28;1012;-57
2023/12/11 00:33:22;;;;;;;4.70;3.30;;;15.70;69.10;;;;;;345504;28;1083;-58
2023/12/11 00:33:34;;;;;;;4.97;3.20;;;15.80;69.00;;;;;;345593;28;955;-59
2023/12/11 00:33:44;;;;;;;5.90;3.13;;;15.70;68.90;;;;;;345567;28;1575;-57
2023/12/11 00:33:55;;;;;;;6.20;3.00;;;15.80;68.80;;;;;;345620;28;1080;-57
2023/12/11 00:34:06;;;;;;;5.10;3.03;;;15.80;68.80;;;;;;345611;28;877;-57
2023/12/11 00:34:17;;;;;;;4.22;3.00;;;15.80;68.80;;;;;;345506;28;2145;-59
2023/12/11 00:34:28;;;;;;;4.20;3.13;;;15.80;68.90;;;;;;345582;28;1025;-57
2023/12/11 00:34:38;;;;;;;4.35;3.20;;;15.70;68.90;;;;;;345556;28;1623;-57
2023/12/11 00:34:49;;;;;;;4.35;3.17;;;15.80;69.00;;;;;;345536;28;1055;-57
2023/12/11 00:35:00;;;;;;;3.77;3.00;;;15.80;68.90;;;;;;345518;28;1095;-58
2023/12/11 00:35:11;;;;;;;3.55;2.83;;;15.70;69.00;;;;;;345605;28;963;-59
2023/12/11 00:35:21;;;;;;;3.60;2.80;;;15.80;68.90;;;;;;345457;28;960;-57
2023/12/11 00:35:32;;;;;;;3.80;2.75;;;15.80;68.70;;;;;;345641;28;1042;-57
2023/12/11 00:35:44;;;;;;;4.23;2.77;;;15.80;68.60;;;;;;345612;28;999;-56
2023/12/11 00:35:55;;;;;;;4.38;2.80;;;15.80;68.50;;;;;;345494;28;1749;-57
2023/12/11 00:36:06;;;;;;;3.90;2.70;;;15.80;68.60;;;;;;345591;28;1208;-56
2023/12/11 00:36:17;;;;;;;3.75;2.75;;;15.70;68.60;;;;;;345544;28;1011;-57
2023/12/11 00:36:27;;;;;;;3.65;2.70;;;15.80;68.60;;;;;;345601;28;1047;-58
2023/12/11 00:36:38;;;;;;;4.97;2.83;;;15.80;68.50;;;;;;345591;28;1019;-58
2023/12/11 00:36:49;;;;;;;6.00;3.13;;;15.80;68.40;;;;;;345503;28;1078;-57
2023/12/11 00:37:00;;;;;;;5.23;3.13;;;15.80;68.20;;;;;;345610;28;1004;-58
2023/12/11 00:37:11;;;;;;;4.72;3.10;;;15.80;68.10;;;;;;345572;28;1031;-57
2023/12/11 00:37:22;;;;;;;4.35;2.75;;;15.80;68.00;;;;;;345559;28;1011;-57
2023/12/11 00:37:33;;;;;;;5.30;2.70;;;15.80;68.00;;;;;;345564;28;1889;-58
2023/12/11 00:37:43;;;;;;;5.57;2.88;;;15.80;68.10;;;;;;345600;28;790;-58
2023/12/11 00:37:54;;;;;;;5.05;2.90;;;15.80;68.20;;;;;;345412;28;1119;-58
2023/12/11 00:38:05;;;;;;;4.32;2.95;;;15.80;68.10;;;;;;345627;28;1015;-57
2023/12/11 00:38:15;;;;;;;3.70;2.88;;;15.80;68.10;;;;;;345621;28;976;-57
2023/12/11 00:38:26;;;;;;;4.07;2.90;;;15.80;67.90;;;;;;345543;28;943;-57
2023/12/11 00:38:37;;;;;;;4.43;2.88;;;15.80;67.80;;;;;;345599;28;852;-57
2023/12/11 00:38:48;;;;;;;4.00;2.80;;;15.80;67.80;;;;;;345550;28;1075;-58
2023/12/11 00:38:59;;;;;;;3.67;2.53;;;15.80;67.70;;;;;;345447;28;1024;-58
2023/12/11 00:39:10;;;;;;;3.90;2.35;;;15.80;67.60;;;;;;345625;28;846;-57
2023/12/11 00:39:21;;;;;;;4.88;2.40;;;15.80;67.60;;;;;;345599;28;1026;-57
2023/12/11 00:39:32;;;;;;;6.07;2.85;;;15.80;67.60;;;;;;345545;28;849;-57
2023/12/11 00:39:42;;;;;;;6.00;2.88;;;15.80;67.50;;;;;;345571;28;896;-59
2023/12/11 00:39:53;;;;;;;5.18;2.95;;;15.80;67.40;;;;;;345567;28;1300;-57
2023/12/11 00:40:05;;;;;;;5.07;2.60;;;15.80;67.40;;;;;;345548;28;936;-58
2023/12/11 00:40:16;;;;;;;5.15;2.85;;;15.80;67.40;;;;;;345592;28;1066;-57
2023/12/11 00:40:27;;;;;;;5.03;3.00;;;15.80;67.40;;;;;;345607;28;877;-58
2023/12/11 00:40:38;;;;;;;4.45;3.08;;;15.80;67.50;;;;;;345505;28;1082;-57
2023/12/11 00:40:50;;;;;;;4.20;2.97;;;15.80;67.60;;;;;;345580;28;1051;-57
2023/12/11 00:41:01;;;;;;;3.85;2.80;;;15.80;67.70;;;;;;345663;28;996;-57
2023/12/11 00:41:11;;;;;;;4.60;2.90;;;15.70;67.70;;;;;;345558;28;999;-58
2023/12/11 00:41:22;;;;;;;5.07;2.90;;;15.80;67.70;;;;;;345509;28;1080;-57
2023/12/11 00:41:33;;;;;;;6.05;2.92;;;15.80;67.70;;;;;;345594;28;1855;-57
2023/12/11 00:41:44;;;;;;;5.30;2.80;;;15.80;67.70;;;;;;345502;28;935;-56
2023/12/11 00:41:55;;;;;;;4.85;2.72;;;15.80;67.70;;;;;;345603;28;940;-58
2023/12/11 00:42:06;;;;;;;4.07;2.73;;;15.80;67.70;;;;;;345440;28;1914;-56
2023/12/11 00:42:16;;;;;;;4.35;2.80;;;15.80;67.60;;;;;;345441;28;1047;-58
2023/12/11 00:42:27;;;;;;;3.72;2.75;;;15.80;67.70;;;;;;345612;28;1920;-57
2023/12/11 00:42:38;;;;;;;3.72;2.70;;;15.80;67.70;;;;;;345525;28;1027;-58
2023/12/11 00:42:48;;;;;;;4.20;2.83;;;15.80;67.70;;;;;;345486;28;997;-57
2023/12/11 00:42:59;;;;;;;4.23;2.83;;;15.80;67.70;;;;;;345529;28;1016;-56
2023/12/11 00:43:10;;;;;;;5.45;3.00;;;15.80;67.70;;;;;;345587;28;1004;-58
2023/12/11 00:43:21;;;;;;;5.18;3.00;;;15.80;67.70;;;;;;345575;28;900;-56
2023/12/11 00:43:31;;;;;;;5.80;3.15;;;15.80;67.70;;;;;;345551;28;1149;-58
2023/12/11 00:43:42;;;;;;;4.90;3.17;;;15.80;67.70;;;;;;345539;28;877;-56
2023/12/11 00:43:53;;;;;;;5.22;3.13;;;15.80;67.70;;;;;;345617;28;882;-57
2023/12/11 00:44:04;;;;;;;4.95;3.03;;;15.80;67.70;;;;;;345619;28;1055;-57
2023/12/11 00:44:15;;;;;;;4.63;3.22;;;15.80;67.70;;;;;;345553;28;1007;-57
2023/12/11 00:44:25;;;;;;;4.78;3.35;;;15.80;67.70;;;;;;345603;28;992;-56
2023/12/11 00:44:37;;;;;;;4.85;3.35;;;15.80;67.70;;;;;;345561;28;833;-57
2023/12/11 00:44:48;;;;;;;5.05;3.03;;;15.80;67.80;;;;;;345626;28;864;-58
2023/12/11 00:44:59;;;;;;;5.27;2.90;;;15.80;67.70;;;;;;345497;28;900;-57
2023/12/11 00:45:13;;;;;;;4.75;3.00;;;15.80;67.60;;;;;;345564;28;1088;-57
2023/12/11 00:45:24;;;;;;;5.22;3.17;;;15.80;67.60;;;;;;345574;28;1287;-57
2023/12/11 00:45:34;;;;;;;5.10;3.00;;;15.80;67.70;;;;;;345575;28;984;-58
2023/12/11 00:45:45;;;;;;;5.50;3.30;;;15.80;67.70;;;;;;345486;28;1778;-57
2023/12/11 00:45:56;;;;;;;4.00;3.28;;;15.80;67.70;;;;;;345537;28;1092;-57
2023/12/11 00:46:10;;;;;;;4.53;3.47;;;15.80;67.70;;;;;;345573;28;805;-57
2023/12/11 00:46:22;;;;;;;4.88;3.30;;;15.80;67.80;;;;;;345597;28;849;-57
2023/12/11 00:46:32;;;;;;;4.90;3.30;;;15.80;68.00;;;;;;345561;28;1026;-57
2023/12/11 00:46:43;;;;;;;5.28;3.35;;;15.80;68.00;;;;;;345500;28;1099;-57
2023/12/11 00:46:54;;;;;;;5.57;3.35;;;15.80;68.10;;;;;;345610;28;1147;-57
2023/12/11 00:47:05;;;;;;;5.65;3.30;;;15.90;68.20;;;;;;345562;28;1099;-58
2023/12/11 00:47:16;;;;;;;4.78;3.20;;;15.80;68.20;;;;;;345502;28;1352;-59
2023/12/11 00:47:26;;;;;;;4.63;3.15;;;15.90;68.20;;;;;;345626;28;914;-57
2023/12/11 00:47:37;;;;;;;4.67;3.00;;;15.90;68.20;;;;;;345537;28;1234;-56
2023/12/11 00:47:48;;;;;;;5.30;2.90;;;15.90;68.20;;;;;;345548;28;900;-58
2023/12/11 00:47:59;;;;;;;5.35;2.80;;;15.80;68.10;;;;;;345541;28;1027;-56
2023/12/11 00:48:10;;;;;;;4.80;2.92;;;15.90;68.10;;;;;;345549;28;1108;-57
2023/12/11 00:48:20;;;;;;;4.78;3.10;;;15.90;68.00;;;;;;345548;28;1028;-56
2023/12/11 00:48:31;;;;;;;4.77;3.10;;;15.80;68.00;;;;;;345582;28;1247;-57
2023/12/11 00:48:42;;;;;;;4.38;2.95;;;15.90;68.00;;;;;;345478;28;1123;-57
2023/12/11 00:48:53;;;;;;;4.32;3.00;;;15.90;67.90;;;;;;345600;28;1059;-58
2023/12/11 00:49:04;;;;;;;4.28;3.25;;;15.90;67.90;;;;;;345640;28;955;-59
2023/12/11 00:49:15;;;;;;;4.80;3.45;;;15.90;68.00;;;;;;345630;28;904;-59
2023/12/11 00:49:25;;;;;;;5.40;3.70;;;15.80;68.00;;;;;;345514;28;1098;-57
2023/12/11 00:49:36;;;;;;;5.10;3.45;;;15.80;68.00;;;;;;345501;28;1572;-56
2023/12/11 00:49:48;;;;;;;4.35;3.17;;;15.90;68.00;;;;;;345568;28;1078;-57
2023/12/11 00:49:58;;;;;;;4.05;2.67;;;15.80;67.80;;;;;;345559;28;1194;-58
2023/12/11 00:50:09;;;;;;;4.75;2.60;;;15.80;67.50;;;;;;345497;28;1035;-57
2023/12/11 00:50:20;;;;;;;4.85;2.55;;;15.80;67.40;;;;;;345591;28;888;-57
2023/12/11 00:50:31;;;;;;;4.73;2.60;;;15.80;67.40;;;;;;345599;28;858;-57
2023/12/11 00:50:41;;;;;;;4.32;2.60;;;15.80;67.30;;;;;;345594;28;1051;-57
2023/12/11 00:50:52;;;;;;;4.15;2.50;;;15.80;67.30;;;;;;345439;28;980;-57
2023/12/11 00:51:03;;;;;;;4.03;2.30;;;15.80;67.20;;;;;;345562;28;1023;-56
2023/12/11 00:51:18;;;;;;;3.78;2.15;;;15.80;67.00;;;;;;345534;28;1000;-61
2023/12/11 00:51:29;;;;;;;4.18;2.35;;;15.80;66.90;;;;;;345489;28;1733;-57
2023/12/11 00:51:39;;;;;;;3.87;2.53;;;15.80;66.90;;;;;;345620;28;967;-56
2023/12/11 00:51:52;;;;;;;3.40;2.50;;;15.80;67.00;;;;;;345530;28;893;-58
2023/12/11 00:52:04;;;;;;;3.75;2.45;;;15.80;67.00;;;;;;345529;28;1079;-57
2023/12/11 00:52:15;;;;;;;3.95;2.30;;;15.80;67.00;;;;;;345560;28;999;-57
2023/12/11 00:52:26;;;;;;;3.63;2.40;;;15.80;66.90;;;;;;345559;28;996;-58
2023/12/11 00:52:37;;;;;;;3.47;2.40;;;15.70;66.80;;;;;;345462;28;1557;-57
2023/12/11 00:52:48;;;;;;;4.18;2.67;;;15.80;66.80;;;;;;345500;28;1019;-57
2023/12/11 00:52:59;;;;;;;4.45;2.67;;;15.80;66.80;;;;;;345574;28;1807;-56
2023/12/11 00:53:09;;;;;;;4.60;2.58;;;15.80;66.80;;;;;;345536;28;1302;-57
2023/12/11 00:53:20;;;;;;;4.50;2.20;;;15.80;66.70;;;;;;345428;28;1925;-59
2023/12/11 00:53:31;;;;;;;5.23;2.27;;;15.80;66.60;;;;;;345608;28;959;-57
2023/12/11 00:53:42;;;;;;;4.97;2.20;;;15.80;66.40;;;;;;345603;28;875;-57
2023/12/11 00:53:52;;;;;;;4.47;2.17;;;15.80;66.20;;;;;;345506;28;936;-57
2023/12/11 00:54:03;;;;;;;4.13;2.20;;;15.80;66.20;;;;;;345538;28;1083;-58
2023/12/11 00:54:14;;;;;;;4.97;2.40;;;15.70;66.10;;;;;;345602;28;1075;-57
2023/12/11 00:54:25;;;;;;;4.90;2.40;;;15.70;66.00;;;;;;345489;28;1131;-57
2023/12/11 00:54:36;;;;;;;4.43;2.33;;;15.70;66.00;;;;;;345540;28;1035;-57
2023/12/11 00:54:46;;;;;;;3.15;2.10;;;15.70;66.10;;;;;;345532;28;1046;-58
2023/12/11 00:54:57;;;;;;;3.83;2.35;;;15.80;66.10;;;;;;345397;28;891;-56
2023/12/11 00:55:08;;;;;;;4.13;2.40;;;15.70;66.20;;;;;;345593;28;987;-58
2023/12/11 00:55:19;;;;;;;4.50;2.40;;;15.70;66.20;;;;;;345598;28;916;-57
2023/12/11 00:55:30;;;;;;;4.93;2.50;;;15.70;66.20;;;;;;345426;28;1028;-58
2023/12/11 00:55:41;;;;;;;6.17;2.70;;;15.80;66.30;;;;;;345468;28;1028;-57
2023/12/11 00:55:51;;;;;;;5.93;2.90;;;15.70;66.30;;;;;;345566;28;1853;-58
2023/12/11 00:56:02;;;;;;;6.25;2.92;;;15.70;66.30;;;;;;345547;28;1425;-57
2023/12/11 00:56:13;;;;;;;5.07;2.83;;;15.70;66.40;;;;;;345555;28;977;-58
2023/12/11 00:56:24;;;;;;;4.57;2.58;;;15.70;66.50;;;;;;345522;28;941;-57
2023/12/11 00:56:35;;;;;;;4.07;2.60;;;15.70;66.60;;;;;;345467;28;916;-57
2023/12/11 00:56:46;;;;;;;5.07;2.70;;;15.70;66.60;;;;;;345570;28;1003;-57
2023/12/11 00:56:56;;;;;;;5.80;2.90;;;15.70;66.60;;;;;;345514;28;2410;-57
2023/12/11 00:57:07;;;;;;;5.33;2.97;;;15.80;66.60;;;;;;345463;28;1024;-58
2023/12/11 00:57:18;;;;;;;4.30;2.92;;;15.70;66.70;;;;;;345571;28;1031;-56
2023/12/11 00:57:29;;;;;;;5.88;3.08;;;15.70;66.70;;;;;;345530;28;888;-58
2023/12/11 00:57:39;;;;;;;6.70;3.10;;;15.80;66.70;;;;;;345498;28;1102;-57
2023/12/11 00:57:50;;;;;;;6.75;2.72;;;15.80;66.80;;;;;;345477;28;1084;-58
2023/12/11 00:58:01;;;;;;;5.00;2.40;;;15.80;66.70;;;;;;345541;28;941;-57
2023/12/11 00:58:12;;;;;;;3.63;2.22;;;15.80;66.60;;;;;;345542;28;915;-57
2023/12/11 00:58:22;;;;;;;4.38;2.55;;;15.80;66.60;;;;;;345524;28;1197;-57
2023/12/11 00:58:33;;;;;;;4.32;2.53;;;15.70;66.50;;;;;;345545;28;1056;-57
2023/12/11 00:58:44;;;;;;;4.27;2.43;;;15.80;66.50;;;;;;345512;28;960;-56